createdAt,value
2019-02-20T00:00:47.434Z,73.00
2019-02-20T00:03:16.543Z,72.90
2019-02-20T00:05:45.309Z,73.00
2019-02-20T00:08:13.799Z,73.30
2019-02-20T00:10:42.490Z,73.30
2019-02-20T00:13:11.073Z,73.10
2019-02-20T00:15:39.632Z,73.20
2019-02-20T00:18:08.373Z,73.20
2019-02-20T00:20:37.181Z,73.20
2019-02-20T00:23:05.799Z,73.00
2019-02-20T00:25:34.379Z,73.10
2019-02-20T00:28:02.935Z,72.90
2019-02-20T00:30:31.600Z,72.90
2019-02-20T00:33:00.493Z,73.10
2019-02-20T00:35:28.998Z,73.20
2019-02-20T00:37:57.583Z,73.10
2019-02-20T00:40:26.179Z,73.20
2019-02-20T00:42:54.726Z,73.20
2019-02-20T00:45:36.721Z,72.60
2019-02-20T00:48:22.070Z,72.60
2019-02-20T00:51:04.554Z,73.00
2019-02-20T00:53:39.177Z,73.30
2019-02-20T00:56:07.785Z,73.80
2019-02-20T00:58:36.342Z,74.10
2019-02-20T01:01:04.986Z,73.90
2019-02-20T01:03:33.578Z,73.90
2019-02-20T01:06:02.288Z,73.60
2019-02-20T01:08:30.901Z,73.30
2019-02-20T01:10:59.489Z,73.20
2019-02-20T01:13:28.138Z,73.40
2019-02-20T01:15:56.757Z,73.30
2019-02-20T01:18:25.364Z,73.30
2019-02-20T01:21:06.040Z,73.00
2019-02-20T01:23:34.692Z,72.80
2019-02-20T01:26:11.110Z,72.70
2019-02-20T01:28:39.610Z,72.60
2019-02-20T01:31:08.168Z,72.90
2019-02-20T01:33:36.816Z,73.30
2019-02-20T01:36:05.465Z,73.50
2019-02-20T01:38:34.058Z,73.80
2019-02-20T01:41:02.705Z,73.70
2019-02-20T01:43:31.399Z,73.30
2019-02-20T01:46:00.050Z,72.80
2019-02-20T01:48:28.599Z,72.50
2019-02-20T01:50:57.202Z,72.70
2019-02-20T01:53:25.847Z,72.80
2019-02-20T01:55:54.473Z,72.90
2019-02-20T01:58:23.312Z,73.30
2019-02-20T02:00:51.849Z,73.40
2019-02-20T02:03:20.506Z,73.90
2019-02-20T02:05:49.086Z,73.30
2019-02-20T02:08:17.846Z,73.50
2019-02-20T02:10:46.504Z,73.80
2019-02-20T02:13:15.098Z,73.40
2019-02-20T02:15:43.843Z,73.30
2019-02-20T02:18:12.422Z,73.40
2019-02-20T02:20:41.157Z,72.80
2019-02-20T02:23:09.781Z,72.80
2019-02-20T02:25:38.450Z,73.00
2019-02-20T02:28:06.983Z,73.40
2019-02-20T02:30:35.696Z,73.40
2019-02-20T02:33:04.311Z,73.20
2019-02-20T02:35:32.950Z,73.10
2019-02-20T02:38:01.689Z,73.20
2019-02-20T02:40:30.585Z,73.00
2019-02-20T02:42:59.206Z,72.90
2019-02-20T02:45:29.416Z,72.60
2019-02-20T02:47:57.975Z,73.50
2019-02-20T02:50:26.567Z,73.00
2019-02-20T02:52:55.263Z,73.20
2019-02-20T02:55:23.877Z,73.10
2019-02-20T02:57:52.688Z,73.60
2019-02-20T03:00:21.228Z,73.50
2019-02-20T03:02:49.735Z,73.30
2019-02-20T03:05:18.274Z,73.10
2019-02-20T03:07:46.888Z,72.70
2019-02-20T03:10:15.401Z,72.40
2019-02-20T03:12:43.985Z,72.40
2019-02-20T03:15:12.953Z,72.60
2019-02-20T03:17:41.581Z,72.50
2019-02-20T03:20:11.088Z,72.30
2019-02-20T03:22:39.745Z,72.50
2019-02-20T03:25:08.380Z,72.50
2019-02-20T03:27:37.004Z,72.40
2019-02-20T03:30:07.564Z,72.50
2019-02-20T03:32:36.182Z,72.60
2019-02-20T03:35:06.960Z,72.30
2019-02-20T03:37:35.587Z,72.30
2019-02-20T03:40:06.061Z,72.10
2019-02-20T03:42:34.820Z,72.40
2019-02-20T03:45:03.507Z,72.70
2019-02-20T03:47:32.089Z,72.70
2019-02-20T03:50:00.656Z,73.10
2019-02-20T03:52:29.237Z,73.50
2019-02-20T03:54:57.877Z,73.40
2019-02-20T03:57:26.408Z,72.90
2019-02-20T03:59:54.991Z,72.40
2019-02-20T04:02:23.562Z,72.30
2019-02-20T04:04:52.106Z,72.20
2019-02-20T04:07:20.675Z,72.70
2019-02-20T04:09:49.259Z,72.60
2019-02-20T04:12:18.123Z,72.30
2019-02-20T04:14:46.784Z,72.10
2019-02-20T04:17:15.524Z,72.10
2019-02-20T04:19:44.089Z,72.10
2019-02-20T04:22:12.674Z,71.50
2019-02-20T04:24:41.186Z,71.80
2019-02-20T04:27:09.729Z,71.60
2019-02-20T04:29:38.309Z,71.70
2019-02-20T04:32:07.194Z,71.50
2019-02-20T04:34:35.770Z,71.50
2019-02-20T04:37:04.537Z,72.10
2019-02-20T04:39:33.071Z,72.10
2019-02-20T04:42:01.682Z,72.10
2019-02-20T04:44:31.337Z,72.60
2019-02-20T04:46:59.877Z,72.30
2019-02-20T04:49:28.472Z,72.20
2019-02-20T04:51:56.952Z,72.30
2019-02-20T04:54:25.519Z,72.30
2019-02-20T04:56:54.120Z,72.10
2019-02-20T04:59:22.891Z,72.20
2019-02-20T05:01:51.514Z,72.00
2019-02-20T05:04:20.118Z,72.20
2019-02-20T05:06:48.704Z,72.60
2019-02-20T05:09:17.493Z,72.60
2019-02-20T05:11:46.004Z,72.70
2019-02-20T05:14:14.522Z,73.00
2019-02-20T05:16:43.107Z,72.50
2019-02-20T05:19:11.689Z,72.10
2019-02-20T05:21:40.341Z,72.10
2019-02-20T05:24:08.901Z,72.00
2019-02-20T05:26:37.486Z,71.60
2019-02-20T05:29:06.091Z,71.70
2019-02-20T05:31:34.777Z,71.70
2019-02-20T05:34:03.564Z,71.70
2019-02-20T05:36:32.253Z,71.60
2019-02-20T05:39:02.376Z,71.90
2019-02-20T05:41:31.075Z,72.10
2019-02-20T05:43:59.640Z,72.00
2019-02-20T05:46:28.148Z,71.90
2019-02-20T05:48:56.640Z,71.80
2019-02-20T05:51:25.242Z,71.80
2019-02-20T05:53:53.791Z,71.60
2019-02-20T05:56:22.362Z,72.00
2019-02-20T05:58:51.014Z,72.30
2019-02-20T06:01:20.353Z,72.10
2019-02-20T06:03:49.085Z,72.10
2019-02-20T06:06:17.662Z,72.20
2019-02-20T06:08:46.242Z,72.30
2019-02-20T06:11:15.549Z,72.20
2019-02-20T06:13:44.359Z,71.90
2019-02-20T06:16:12.944Z,72.00
2019-02-20T06:18:41.545Z,71.70
2019-02-20T06:21:10.109Z,71.50
2019-02-20T06:23:38.621Z,71.80
2019-02-20T06:26:08.899Z,71.90
2019-02-20T06:28:37.603Z,71.90
2019-02-20T06:31:06.289Z,72.10
2019-02-20T06:33:35.082Z,72.40
2019-02-20T06:36:03.692Z,72.20
2019-02-20T06:38:32.368Z,72.20
2019-02-20T06:41:00.925Z,71.90
2019-02-20T06:43:29.700Z,72.10
2019-02-20T06:45:58.283Z,72.10
2019-02-20T06:48:27.072Z,72.10
2019-02-20T06:50:55.689Z,72.10
2019-02-20T06:53:24.183Z,72.20
2019-02-20T06:55:52.858Z,72.10
2019-02-20T06:58:21.489Z,71.90
2019-02-20T07:00:50.072Z,71.80
2019-02-20T07:03:18.809Z,71.70
2019-02-20T07:05:48.081Z,71.40
2019-02-20T07:08:45.708Z,71.50
2019-02-20T07:11:44.406Z,71.50
2019-02-20T07:14:24.839Z,71.50
2019-02-20T07:17:17.372Z,71.90
2019-02-20T07:19:49.141Z,72.00
2019-02-20T07:22:30.061Z,72.20
2019-02-20T07:25:13.756Z,72.60
2019-02-20T07:27:49.225Z,72.70
2019-02-20T07:33:26.254Z,73.00
2019-02-20T07:35:54.945Z,72.90
2019-02-20T07:38:25.356Z,73.40
2019-02-20T07:40:54.018Z,73.40
2019-02-20T07:43:22.613Z,73.60
2019-02-20T07:45:51.283Z,73.60
2019-02-20T07:48:19.924Z,73.40
2019-02-20T07:50:48.805Z,72.60
2019-02-20T07:53:17.361Z,72.20
2019-02-20T07:55:45.986Z,72.30
2019-02-20T07:58:14.699Z,72.90
2019-02-20T08:00:43.305Z,73.30
2019-02-20T08:03:12.133Z,73.10
2019-02-20T08:05:40.840Z,73.20
2019-02-20T08:08:09.424Z,73.00
2019-02-20T08:10:38.405Z,73.20
2019-02-20T08:13:07.049Z,73.50
2019-02-20T08:15:35.817Z,73.50
2019-02-20T08:18:06.149Z,73.60
2019-02-20T08:20:34.706Z,73.70
2019-02-20T08:23:03.323Z,73.40
2019-02-20T08:25:33.509Z,73.10
2019-02-20T08:28:02.082Z,72.40
2019-02-20T08:30:30.674Z,72.00
2019-02-20T08:32:59.386Z,72.00
2019-02-20T08:35:28.060Z,71.90
2019-02-20T08:37:56.879Z,72.00
2019-02-20T08:40:25.750Z,72.10
2019-02-20T08:42:54.425Z,72.20
2019-02-20T08:45:23.037Z,71.90
2019-02-20T08:47:52.106Z,71.50
2019-02-20T08:50:20.811Z,71.40
2019-02-20T08:52:49.607Z,71.70
2019-02-20T08:55:19.834Z,72.20
2019-02-20T08:57:48.483Z,72.20
2019-02-20T09:00:17.458Z,72.00
2019-02-20T09:02:47.951Z,71.90
2019-02-20T09:05:16.567Z,71.90
2019-02-20T09:07:45.226Z,71.50
2019-02-20T09:10:14.422Z,71.60
2019-02-20T09:12:43.104Z,71.60
2019-02-20T09:15:13.527Z,71.40
2019-02-20T09:17:42.073Z,71.20
2019-02-20T09:20:11.944Z,71.40
2019-02-20T09:22:41.603Z,72.10
2019-02-20T09:25:19.550Z,72.20
2019-02-20T09:27:43.006Z,72.20
2019-02-20T09:30:14.004Z,72.20
2019-02-20T09:32:42.609Z,72.00
2019-02-20T09:35:11.781Z,72.20
2019-02-20T09:37:41.749Z,72.40
2019-02-20T09:40:13.503Z,72.20
2019-02-20T09:42:43.365Z,71.70
2019-02-20T09:45:11.961Z,71.30
2019-02-20T09:47:40.696Z,71.80
2019-02-20T09:50:10.187Z,71.30
2019-02-20T09:52:38.889Z,71.40
2019-02-20T09:55:12.416Z,72.00
2019-02-20T09:57:41.022Z,72.80
2019-02-20T10:00:28.945Z,73.60
2019-02-20T10:02:57.499Z,73.80
2019-02-20T10:05:26.338Z,73.90
2019-02-20T10:07:55.102Z,74.40
2019-02-20T10:10:23.838Z,74.90
2019-02-20T10:12:52.472Z,74.80
2019-02-20T10:15:21.307Z,74.60
2019-02-20T10:17:50.018Z,74.50
2019-02-20T10:20:18.562Z,75.00
2019-02-20T10:22:47.511Z,74.80
2019-02-20T10:25:16.086Z,74.00
2019-02-20T10:27:44.836Z,74.60
2019-02-20T10:30:20.808Z,74.70
2019-02-20T10:32:49.619Z,74.60
2019-02-20T10:35:18.163Z,74.50
2019-02-20T10:37:46.837Z,74.40
2019-02-20T10:40:15.400Z,74.40
2019-02-20T10:42:44.068Z,74.50
2019-02-20T10:45:15.668Z,74.20
2019-02-20T10:47:44.512Z,74.20
2019-02-20T10:50:14.203Z,73.00
2019-02-20T10:52:42.955Z,72.90
2019-02-20T10:55:11.989Z,73.20
2019-02-20T10:57:40.758Z,73.30
2019-02-20T11:00:23.362Z,73.20
2019-02-20T11:02:47.303Z,73.00
2019-02-20T11:05:16.530Z,73.30
2019-02-20T11:07:45.114Z,72.80
2019-02-20T11:10:13.857Z,72.60
2019-02-20T11:12:42.413Z,72.40
2019-02-20T11:15:13.090Z,71.90
2019-02-20T11:17:41.459Z,70.90
2019-02-20T11:20:13.605Z,70.10
2019-02-20T11:22:43.169Z,69.30
2019-02-20T11:25:13.090Z,68.90
2019-02-20T11:27:41.930Z,68.70
2019-02-20T11:30:13.895Z,68.80
2019-02-20T11:32:42.526Z,69.10
2019-02-20T11:35:11.192Z,68.70
2019-02-20T11:37:39.937Z,67.80
2019-02-20T11:40:11.214Z,67.40
2019-02-20T11:42:40.310Z,67.50
2019-02-20T11:45:14.810Z,66.50
2019-02-20T11:47:43.402Z,66.70
2019-02-20T11:50:12.313Z,66.10
2019-02-20T11:52:41.203Z,66.10
2019-02-20T11:55:29.175Z,65.80
2019-02-20T11:58:00.663Z,64.50
2019-02-20T12:00:28.282Z,64.90
2019-02-20T12:02:56.986Z,65.20
2019-02-20T12:05:25.794Z,65.20
2019-02-20T12:07:54.397Z,65.30
2019-02-20T12:10:23.416Z,65.10
2019-02-20T12:12:51.997Z,65.60
2019-02-20T12:15:20.801Z,65.20
2019-02-20T12:17:51.188Z,64.80
2019-02-20T12:20:39.167Z,65.00
2019-02-20T12:23:07.733Z,64.70
2019-02-20T12:25:36.362Z,65.00
2019-02-20T12:28:06.382Z,65.30
2019-02-20T12:30:35.204Z,65.40
2019-02-20T12:33:04.222Z,65.20
2019-02-20T12:35:32.804Z,64.90
2019-02-20T12:38:02.474Z,65.20
2019-02-20T12:40:31.685Z,65.40
2019-02-20T12:43:00.301Z,65.60
2019-02-20T12:45:29.728Z,65.40
2019-02-20T12:47:58.392Z,64.80
2019-02-20T12:50:26.974Z,64.00
2019-02-20T12:52:55.713Z,63.50
2019-02-20T12:55:24.348Z,63.70
2019-02-20T12:57:52.958Z,63.30
2019-02-20T13:00:27.915Z,63.70
2019-02-20T13:02:56.755Z,63.50
2019-02-20T13:05:25.981Z,63.80
2019-02-20T13:07:54.821Z,63.90
2019-02-20T13:10:23.561Z,63.80
2019-02-20T13:12:52.304Z,63.30
2019-02-20T13:15:21.109Z,63.00
2019-02-20T13:17:49.694Z,63.00
2019-02-20T13:20:18.388Z,62.90
2019-02-20T13:22:47.000Z,62.70
2019-02-20T13:25:15.754Z,63.00
2019-02-20T13:27:44.287Z,63.30
2019-02-20T13:30:15.300Z,63.30
2019-02-20T13:32:43.969Z,62.90
2019-02-20T13:35:12.785Z,62.00
2019-02-20T13:37:50.452Z,61.90
2019-02-20T13:40:19.198Z,61.80
2019-02-20T13:42:48.500Z,61.80
2019-02-20T13:45:17.125Z,61.30
2019-02-20T13:47:46.113Z,61.40
2019-02-20T13:50:15.050Z,61.80
2019-02-20T13:52:51.987Z,61.60
2019-02-20T13:55:14.387Z,61.60
2019-02-20T13:57:43.047Z,61.70
2019-02-20T14:00:13.502Z,61.50
2019-02-20T14:02:42.602Z,61.80
2019-02-20T14:05:11.466Z,62.10
2019-02-20T14:07:40.845Z,62.40
2019-02-20T14:10:12.027Z,62.20
2019-02-20T14:12:42.542Z,61.40
2019-02-20T14:15:14.020Z,61.70
2019-02-20T14:17:42.680Z,62.10
2019-02-20T14:20:30.716Z,62.00
2019-02-20T14:22:59.276Z,62.10
2019-02-20T14:25:27.930Z,62.50
2019-02-20T14:27:56.521Z,62.30
2019-02-20T14:30:25.334Z,61.60
2019-02-20T14:32:53.995Z,61.50
2019-02-20T14:35:23.069Z,61.90
2019-02-20T14:37:51.736Z,62.10
2019-02-20T14:40:20.321Z,62.10
2019-02-20T14:42:49.018Z,62.10
2019-02-20T14:45:17.701Z,62.40
2019-02-20T14:47:48.080Z,62.40
2019-02-20T14:50:16.520Z,62.00
2019-02-20T14:52:45.156Z,62.50
2019-02-20T14:55:13.722Z,63.20
2019-02-20T14:57:42.391Z,62.30
2019-02-20T15:00:13.746Z,62.50
2019-02-20T15:02:42.383Z,62.50
2019-02-20T15:05:12.056Z,62.30
2019-02-20T15:07:40.994Z,62.80
2019-02-20T15:10:10.537Z,62.80
2019-02-20T15:12:39.278Z,62.90
2019-02-20T15:15:11.035Z,63.00
2019-02-20T15:17:42.069Z,63.10
2019-02-20T15:20:11.322Z,62.80
2019-02-20T15:22:40.425Z,62.70
2019-02-20T15:25:10.031Z,62.80
2019-02-20T15:27:38.973Z,62.80
2019-02-20T15:30:14.041Z,62.80
2019-02-20T15:32:42.657Z,63.10
2019-02-20T15:35:12.983Z,63.20
2019-02-20T15:37:41.737Z,63.50
2019-02-20T15:40:10.797Z,63.60
2019-02-20T15:42:39.594Z,63.60
2019-02-20T15:45:11.006Z,63.50
2019-02-20T15:47:39.799Z,63.70
2019-02-20T15:50:15.357Z,63.80
2019-02-20T15:52:43.992Z,63.80
2019-02-20T15:55:13.496Z,63.90
2019-02-20T15:57:42.317Z,63.80
2019-02-20T16:00:18.016Z,63.90
2019-02-20T16:02:47.418Z,63.90
2019-02-20T16:05:16.350Z,63.80
2019-02-20T16:07:45.026Z,63.60
2019-02-20T16:10:13.782Z,63.90
2019-02-20T16:12:43.131Z,64.10
2019-02-20T16:15:14.573Z,64.00
2019-02-20T16:17:44.828Z,64.10
2019-02-20T16:20:13.902Z,64.40
2019-02-20T16:22:42.593Z,64.60
2019-02-20T16:25:35.377Z,64.80
2019-02-20T16:28:03.975Z,64.90
2019-02-20T16:30:32.848Z,64.90
2019-02-20T16:33:07.775Z,65.00
2019-02-20T16:35:36.366Z,65.00
2019-02-20T16:38:07.713Z,65.20
2019-02-20T16:40:36.406Z,65.20
2019-02-20T16:43:05.354Z,65.30
2019-02-20T16:45:34.373Z,65.40
2019-02-20T16:48:04.687Z,65.60
2019-02-20T16:50:34.410Z,65.80
2019-02-20T16:53:03.212Z,66.00
2019-02-20T16:55:32.006Z,66.30
2019-02-20T16:58:00.556Z,66.40
2019-02-20T17:00:29.970Z,66.70
2019-02-20T17:02:58.676Z,67.00
2019-02-20T17:05:27.335Z,67.10
2019-02-20T17:07:55.900Z,67.30
2019-02-20T17:10:24.635Z,67.20
2019-02-20T17:12:53.272Z,67.10
2019-02-20T17:15:22.034Z,67.10
2019-02-20T17:17:53.021Z,67.20
2019-02-20T17:20:22.585Z,67.60
2019-02-20T17:22:51.782Z,67.90
2019-02-20T17:25:21.186Z,68.10
2019-02-20T17:27:49.825Z,68.10
2019-02-20T17:30:20.970Z,68.20
2019-02-20T17:32:50.398Z,68.30
2019-02-20T17:35:19.033Z,68.50
2019-02-20T17:37:47.797Z,68.60
2019-02-20T17:40:17.988Z,68.80
2019-02-20T17:42:46.573Z,68.70
2019-02-20T17:45:34.559Z,68.80
2019-02-20T17:48:03.223Z,68.50
2019-02-20T17:50:31.894Z,68.70
2019-02-20T17:53:00.537Z,68.80
2019-02-20T17:55:29.215Z,69.00
2019-02-20T17:57:57.978Z,69.30
2019-02-20T18:00:30.891Z,69.20
2019-02-20T18:02:59.603Z,69.30
2019-02-20T18:05:28.561Z,69.40
2019-02-20T18:07:57.226Z,69.60
2019-02-20T18:10:25.850Z,69.50
2019-02-20T18:12:54.658Z,69.60
2019-02-20T18:15:23.266Z,70.00
2019-02-20T18:17:51.920Z,70.00
2019-02-20T18:20:20.649Z,70.10
2019-02-20T18:22:49.410Z,70.30
2019-02-20T18:25:17.973Z,70.00
2019-02-20T18:27:46.715Z,70.30
2019-02-20T18:30:16.153Z,70.10
2019-02-20T18:32:44.920Z,70.30
2019-02-20T18:35:21.095Z,70.30
2019-02-20T18:37:49.693Z,70.40
2019-02-20T18:40:18.664Z,70.60
2019-02-20T18:42:47.244Z,70.50
2019-02-20T18:45:16.478Z,71.20
2019-02-20T18:47:47.026Z,70.40
2019-02-20T18:50:16.546Z,70.60
2019-02-20T18:52:45.307Z,70.60
2019-02-20T18:55:14.847Z,70.70
2019-02-20T18:57:43.843Z,70.50
2019-02-20T19:00:20.539Z,70.50
2019-02-20T19:02:49.408Z,70.20
2019-02-20T19:05:19.135Z,70.20
2019-02-20T19:07:48.187Z,70.40
2019-02-20T19:10:28.580Z,70.50
2019-02-20T19:13:05.782Z,70.70
2019-02-20T19:15:43.254Z,70.50
2019-02-20T19:18:26.771Z,70.50
2019-02-20T19:21:07.629Z,70.50
2019-02-20T19:23:57.386Z,70.60
2019-02-20T19:26:47.191Z,70.80
2019-02-20T19:29:18.866Z,71.00
2019-02-20T19:31:50.537Z,71.20
2019-02-20T19:34:25.039Z,71.40
2019-02-20T19:37:09.152Z,71.40
2019-02-20T19:39:49.884Z,71.10
2019-02-20T19:42:33.698Z,71.30
2019-02-20T19:45:07.896Z,72.60
2019-02-20T19:47:40.671Z,72.60
2019-02-20T19:50:30.438Z,71.60
2019-02-20T19:53:11.142Z,72.80
2019-02-20T19:56:09.880Z,73.70
2019-02-20T19:59:06.050Z,73.20
2019-02-20T20:02:10.947Z,73.20
2019-02-20T20:05:18.931Z,73.40
2019-02-20T20:08:17.722Z,73.40
2019-02-20T20:10:51.946Z,73.40
2019-02-20T20:13:31.990Z,73.60
2019-02-20T20:16:12.607Z,73.10
2019-02-20T20:19:02.330Z,72.80
2019-02-20T20:21:39.933Z,72.70
2019-02-20T20:24:19.779Z,72.70
2019-02-20T20:27:23.491Z,72.80
2019-02-20T20:30:10.690Z,72.50
2019-02-20T20:32:58.858Z,72.60
2019-02-20T20:35:33.505Z,72.60
2019-02-20T20:38:29.709Z,72.60
2019-02-20T20:41:34.726Z,72.90
2019-02-20T20:44:28.146Z,73.00
2019-02-20T20:47:03.522Z,73.30
2019-02-20T20:49:41.267Z,73.50
2019-02-20T20:52:18.749Z,73.50
2019-02-20T20:55:19.059Z,73.30
2019-02-20T20:58:08.712Z,73.20
2019-02-20T21:00:57.253Z,73.40
2019-02-20T21:03:31.590Z,73.50
2019-02-20T21:06:33.664Z,73.60
2019-02-20T21:09:05.304Z,73.10
2019-02-20T21:11:42.667Z,73.80
2019-02-20T21:14:31.095Z,73.80
2019-02-20T21:17:02.850Z,73.80
2019-02-20T21:19:53.862Z,73.60
2019-02-20T21:22:37.429Z,73.60
2019-02-20T21:25:42.487Z,73.80
2019-02-20T21:28:36.515Z,74.20
2019-02-20T21:31:11.241Z,74.30
2019-02-20T21:33:45.807Z,74.00
2019-02-20T21:36:21.440Z,73.50
2019-02-20T21:38:56.093Z,73.40
2019-02-20T21:41:43.360Z,73.50
2019-02-20T21:44:43.868Z,73.10
2019-02-20T21:47:24.568Z,73.00
2019-02-20T21:50:15.840Z,73.40
2019-02-20T21:53:12.844Z,73.50
2019-02-20T21:56:08.518Z,73.20
2019-02-20T21:58:55.218Z,73.20
2019-02-20T22:01:47.878Z,73.20
2019-02-20T22:04:34.482Z,73.50
2019-02-20T22:07:17.669Z,73.50
2019-02-20T22:09:57.705Z,73.60
2019-02-20T22:12:36.627Z,74.00
2019-02-20T22:15:36.875Z,73.80
2019-02-20T22:18:17.441Z,73.40
2019-02-20T22:20:57.841Z,73.60
2019-02-20T22:23:44.999Z,73.40
2019-02-20T22:26:16.694Z,73.40
2019-02-20T22:28:57.954Z,73.50
2019-02-20T22:31:49.002Z,73.20
2019-02-20T22:34:23.738Z,73.40
2019-02-20T22:36:55.384Z,73.30
2019-02-20T22:39:27.064Z,73.20
2019-02-20T22:42:24.470Z,73.30
2019-02-20T22:45:15.118Z,73.50
2019-02-20T22:48:03.191Z,73.50
2019-02-20T22:50:37.897Z,73.80
2019-02-20T22:53:19.509Z,73.80
2019-02-20T22:56:07.803Z,73.80
2019-02-20T22:58:42.415Z,73.90
2019-02-20T23:01:21.097Z,73.50
2019-02-20T23:03:58.512Z,73.80
2019-02-20T23:06:52.784Z,73.70
2019-02-20T23:09:48.626Z,73.80
2019-02-20T23:12:22.942Z,74.00
2019-02-20T23:14:54.118Z,73.90
2019-02-20T23:17:22.751Z,74.00
2019-02-20T23:19:51.414Z,74.30
2019-02-20T23:22:20.246Z,74.40
2019-02-20T23:24:48.840Z,74.10
2019-02-20T23:27:17.458Z,74.10
2019-02-20T23:29:46.030Z,74.20
2019-02-20T23:32:14.636Z,74.20
2019-02-20T23:34:43.250Z,74.20
2019-02-20T23:37:12.860Z,74.10
2019-02-20T23:39:41.443Z,73.70
2019-02-20T23:42:10.135Z,74.00
2019-02-20T23:44:38.802Z,73.90
2019-02-20T23:47:07.349Z,73.70
2019-02-20T23:49:36.016Z,73.90
2019-02-20T23:52:04.627Z,73.90
2019-02-20T23:54:33.415Z,74.00
2019-02-20T23:57:01.904Z,74.00
2019-02-20T23:59:30.770Z,73.80
